sensor_id;sensor_type;location;lat;lon;timestamp;P1;durP1;ratioP1;P2;durP2;ratioP2
9424;SDS011;17139;52.140;11.636;2023-04-15T00:02:21;1.17;;;1.17;;
9424;SDS011;17139;52.140;11.636;2023-04-15T00:04:48;4.10;;;3.90;;
9424;SDS011;17139;52.140;11.636;2023-04-15T00:07:15;4.50;;;4.10;;
9424;SDS011;17139;52.140;11.636;2023-04-15T00:09:43;2.30;;;2.30;;
9424;SDS011;17139;52.140;11.636;2023-04-15T00:12:10;2.50;;;2.40;;
9424;SDS011;17139;52.140;11.636;2023-04-15T00:14:38;2.50;;;2.40;;
9424;SDS011;17139;52.140;11.636;2023-04-15T00:17:05;1.77;;;1.77;;
9424;SDS011;17139;52.140;11.636;2023-04-15T00:19:32;2.20;;;2.10;;
9424;SDS011;17139;52.140;11.636;2023-04-15T00:21:59;1.97;;;1.97;;
9424;SDS011;17139;52.140;11.636;2023-04-15T00:24:26;2.27;;;2.17;;
9424;SDS011;17139;52.140;11.636;2023-04-15T00:26:54;1.80;;;1.80;;
9424;SDS011;17139;52.140;11.636;2023-04-15T00:29:22;1.93;;;1.87;;
9424;SDS011;17139;52.140;11.636;2023-04-15T00:31:49;3.80;;;3.60;;
9424;SDS011;17139;52.140;11.636;2023-04-15T00:34:16;1.67;;;1.67;;
9424;SDS011;17139;52.140;11.636;2023-04-15T00:36:43;2.27;;;2.17;;
9424;SDS011;17139;52.140;11.636;2023-04-15T00:39:10;3.30;;;3.20;;
9424;SDS011;17139;52.140;11.636;2023-04-15T00:41:37;2.37;;;2.30;;
9424;SDS011;17139;52.140;11.636;2023-04-15T00:44:06;1.83;;;1.77;;
9424;SDS011;17139;52.140;11.636;2023-04-15T00:46:34;2.17;;;2.07;;
9424;SDS011;17139;52.140;11.636;2023-04-15T00:49:03;1.93;;;1.93;;
9424;SDS011;17139;52.140;11.636;2023-04-15T00:51:31;1.93;;;1.90;;
9424;SDS011;17139;52.140;11.636;2023-04-15T00:54:00;1.10;;;1.10;;
9424;SDS011;17139;52.140;11.636;2023-04-15T00:56:28;1.87;;;1.80;;
9424;SDS011;17139;52.140;11.636;2023-04-15T00:58:55;2.17;;;2.13;;
9424;SDS011;17139;52.140;11.636;2023-04-15T01:01:25;2.23;;;2.13;;
9424;SDS011;17139;52.140;11.636;2023-04-15T01:03:54;1.73;;;1.73;;
9424;SDS011;17139;52.140;11.636;2023-04-15T01:06:22;1.90;;;1.80;;
9424;SDS011;17139;52.140;11.636;2023-04-15T01:08:51;2.90;;;2.70;;
9424;SDS011;17139;52.140;11.636;2023-04-15T01:11:18;1.47;;;1.37;;
9424;SDS011;17139;52.140;11.636;2023-04-15T01:13:46;2.37;;;2.27;;
9424;SDS011;17139;52.140;11.636;2023-04-15T01:16:13;2.50;;;2.40;;
9424;SDS011;17139;52.140;11.636;2023-04-15T01:18:42;2.07;;;1.77;;
9424;SDS011;17139;52.140;11.636;2023-04-15T01:21:10;1.37;;;1.37;;
9424;SDS011;17139;52.140;11.636;2023-04-15T01:23:37;2.13;;;2.03;;
9424;SDS011;17139;52.140;11.636;2023-04-15T01:26:06;1.87;;;1.87;;
9424;SDS011;17139;52.140;11.636;2023-04-15T01:28:34;1.50;;;1.50;;
9424;SDS011;17139;52.140;11.636;2023-04-15T01:31:08;1.53;;;1.53;;
9424;SDS011;17139;52.140;11.636;2023-04-15T01:33:37;2.55;;;1.70;;
9424;SDS011;17139;52.140;11.636;2023-04-15T01:36:05;1.33;;;1.33;;
9424;SDS011;17139;52.140;11.636;2023-04-15T01:38:34;2.27;;;2.17;;
9424;SDS011;17139;52.140;11.636;2023-04-15T01:41:01;2.40;;;2.30;;
9424;SDS011;17139;52.140;11.636;2023-04-15T01:43:30;2.30;;;2.20;;
9424;SDS011;17139;52.140;11.636;2023-04-15T01:45:57;3.07;;;2.00;;
9424;SDS011;17139;52.140;11.636;2023-04-15T01:48:24;2.10;;;2.00;;
9424;SDS011;17139;52.140;11.636;2023-04-15T01:50:52;1.90;;;1.80;;
9424;SDS011;17139;52.140;11.636;2023-04-15T01:53:21;1.63;;;1.63;;
9424;SDS011;17139;52.140;11.636;2023-04-15T01:55:48;2.00;;;2.00;;
9424;SDS011;17139;52.140;11.636;2023-04-15T01:58:16;2.40;;;2.30;;
9424;SDS011;17139;52.140;11.636;2023-04-15T02:00:44;1.93;;;1.83;;
9424;SDS011;17139;52.140;11.636;2023-04-15T02:03:12;1.10;;;1.10;;
9424;SDS011;17139;52.140;11.636;2023-04-15T02:05:39;1.77;;;1.77;;
9424;SDS011;17139;52.140;11.636;2023-04-15T02:08:06;1.80;;;1.80;;
9424;SDS011;17139;52.140;11.636;2023-04-15T02:10:34;3.10;;;3.00;;
9424;SDS011;17139;52.140;11.636;2023-04-15T02:13:01;3.37;;;3.23;;
9424;SDS011;17139;52.140;11.636;2023-04-15T02:15:28;2.00;;;1.90;;
9424;SDS011;17139;52.140;11.636;2023-04-15T02:17:57;2.50;;;2.40;;
9424;SDS011;17139;52.140;11.636;2023-04-15T02:20:25;2.13;;;2.00;;
9424;SDS011;17139;52.140;11.636;2023-04-15T02:22:52;2.37;;;2.27;;
9424;SDS011;17139;52.140;11.636;2023-04-15T02:25:19;2.53;;;2.43;;
9424;SDS011;17139;52.140;11.636;2023-04-15T02:27:46;2.83;;;2.73;;
9424;SDS011;17139;52.140;11.636;2023-04-15T02:30:13;2.40;;;2.30;;
9424;SDS011;17139;52.140;11.636;2023-04-15T02:32:40;2.00;;;2.00;;
9424;SDS011;17139;52.140;11.636;2023-04-15T02:35:10;2.83;;;2.73;;
9424;SDS011;17139;52.140;11.636;2023-04-15T02:37:37;2.23;;;2.13;;
9424;SDS011;17139;52.140;11.636;2023-04-15T02:40:08;6.03;;;5.72;;
9424;SDS011;17139;52.140;11.636;2023-04-15T02:42:36;3.07;;;2.97;;
9424;SDS011;17139;52.140;11.636;2023-04-15T02:45:04;2.60;;;2.50;;
9424;SDS011;17139;52.140;11.636;2023-04-15T02:47:32;5.80;;;5.50;;
9424;SDS011;17139;52.140;11.636;2023-04-15T02:50:01;3.73;;;3.63;;
9424;SDS011;17139;52.140;11.636;2023-04-15T02:52:30;2.83;;;2.73;;
9424;SDS011;17139;52.140;11.636;2023-04-15T02:54:57;2.90;;;2.77;;
9424;SDS011;17139;52.140;11.636;2023-04-15T02:57:26;2.07;;;2.00;;
9424;SDS011;17139;52.140;11.636;2023-04-15T02:59:54;2.70;;;2.60;;
9424;SDS011;17139;52.140;11.636;2023-04-15T03:02:21;1.10;;;1.10;;
9424;SDS011;17139;52.140;11.636;2023-04-15T03:04:48;2.60;;;2.50;;
9424;SDS011;17139;52.140;11.636;2023-04-15T03:07:18;2.57;;;2.47;;
9424;SDS011;17139;52.140;11.636;2023-04-15T03:09:47;2.60;;;2.50;;
9424;SDS011;17139;52.140;11.636;2023-04-15T03:12:14;2.70;;;2.60;;
9424;SDS011;17139;52.140;11.636;2023-04-15T03:14:41;3.17;;;3.07;;
9424;SDS011;17139;52.140;11.636;2023-04-15T03:17:07;6.15;;;5.75;;
9424;SDS011;17139;52.140;11.636;2023-04-15T03:19:35;5.85;;;5.45;;
9424;SDS011;17139;52.140;11.636;2023-04-15T03:22:01;4.43;;;3.57;;
9424;SDS011;17139;52.140;11.636;2023-04-15T03:24:28;2.27;;;2.17;;
9424;SDS011;17139;52.140;11.636;2023-04-15T03:26:57;3.40;;;3.27;;
9424;SDS011;17139;52.140;11.636;2023-04-15T03:29:25;3.00;;;2.90;;
9424;SDS011;17139;52.140;11.636;2023-04-15T03:31:52;2.20;;;2.10;;
9424;SDS011;17139;52.140;11.636;2023-04-15T03:34:19;2.73;;;2.63;;
9424;SDS011;17139;52.140;11.636;2023-04-15T03:36:46;3.27;;;3.03;;
9424;SDS011;17139;52.140;11.636;2023-04-15T03:39:13;0.80;;;0.80;;
9424;SDS011;17139;52.140;11.636;2023-04-15T03:41:41;2.50;;;2.40;;
9424;SDS011;17139;52.140;11.636;2023-04-15T03:44:09;1.65;;;1.63;;
9424;SDS011;17139;52.140;11.636;2023-04-15T03:46:36;2.30;;;2.20;;
9424;SDS011;17139;52.140;11.636;2023-04-15T03:49:05;2.00;;;1.87;;
9424;SDS011;17139;52.140;11.636;2023-04-15T03:51:32;1.60;;;1.60;;
9424;SDS011;17139;52.140;11.636;2023-04-15T03:53:59;2.13;;;2.03;;
9424;SDS011;17139;52.140;11.636;2023-04-15T03:56:26;1.93;;;1.93;;
9424;SDS011;17139;52.140;11.636;2023-04-15T03:58:53;1.90;;;1.90;;
9424;SDS011;17139;52.140;11.636;2023-04-15T04:01:21;1.43;;;1.43;;
9424;SDS011;17139;52.140;11.636;2023-04-15T04:03:48;1.83;;;1.83;;
9424;SDS011;17139;52.140;11.636;2023-04-15T04:06:15;1.57;;;1.57;;
9424;SDS011;17139;52.140;11.636;2023-04-15T04:08:42;1.57;;;1.57;;
9424;SDS011;17139;52.140;11.636;2023-04-15T04:11:09;1.57;;;1.57;;
9424;SDS011;17139;52.140;11.636;2023-04-15T04:13:37;1.80;;;1.80;;
9424;SDS011;17139;52.140;11.636;2023-04-15T04:16:04;1.30;;;1.30;;
9424;SDS011;17139;52.140;11.636;2023-04-15T04:18:33;1.50;;;1.50;;
9424;SDS011;17139;52.140;11.636;2023-04-15T04:21:00;1.67;;;1.57;;
9424;SDS011;17139;52.140;11.636;2023-04-15T04:23:27;3.72;;;3.53;;
9424;SDS011;17139;52.140;11.636;2023-04-15T04:25:54;2.50;;;2.40;;
9424;SDS011;17139;52.140;11.636;2023-04-15T04:28:21;1.80;;;1.80;;
9424;SDS011;17139;52.140;11.636;2023-04-15T04:30:48;2.10;;;2.00;;
9424;SDS011;17139;52.140;11.636;2023-04-15T04:33:15;2.10;;;2.00;;
9424;SDS011;17139;52.140;11.636;2023-04-15T04:35:44;1.33;;;1.33;;
9424;SDS011;17139;52.140;11.636;2023-04-15T04:38:11;1.80;;;1.20;;
9424;SDS011;17139;52.140;11.636;2023-04-15T04:40:38;1.70;;;1.70;;
9424;SDS011;17139;52.140;11.636;2023-04-15T04:43:05;1.63;;;1.63;;
9424;SDS011;17139;52.140;11.636;2023-04-15T04:45:32;1.20;;;1.20;;
9424;SDS011;17139;52.140;11.636;2023-04-15T04:47:59;1.93;;;1.90;;
9424;SDS011;17139;52.140;11.636;2023-04-15T04:50:26;0.67;;;0.67;;
9424;SDS011;17139;52.140;11.636;2023-04-15T04:52:54;2.78;;;2.67;;
9424;SDS011;17139;52.140;11.636;2023-04-15T04:55:21;2.00;;;2.00;;
9424;SDS011;17139;52.140;11.636;2023-04-15T04:57:48;1.70;;;1.60;;
9424;SDS011;17139;52.140;11.636;2023-04-15T05:00:15;2.30;;;2.20;;
9424;SDS011;17139;52.140;11.636;2023-04-15T05:02:43;1.20;;;1.20;;
9424;SDS011;17139;52.140;11.636;2023-04-15T05:05:10;1.90;;;1.90;;
9424;SDS011;17139;52.140;11.636;2023-04-15T05:07:38;1.80;;;1.77;;
9424;SDS011;17139;52.140;11.636;2023-04-15T05:10:07;1.30;;;1.30;;
9424;SDS011;17139;52.140;11.636;2023-04-15T05:12:34;1.50;;;1.50;;
9424;SDS011;17139;52.140;11.636;2023-04-15T05:15:02;1.37;;;1.37;;
9424;SDS011;17139;52.140;11.636;2023-04-15T05:17:30;1.53;;;1.53;;
9424;SDS011;17139;52.140;11.636;2023-04-15T05:19:59;1.77;;;1.77;;
9424;SDS011;17139;52.140;11.636;2023-04-15T05:22:26;1.53;;;1.53;;
9424;SDS011;17139;52.140;11.636;2023-04-15T05:24:53;2.10;;;1.90;;
9424;SDS011;17139;52.140;11.636;2023-04-15T05:27:23;1.47;;;1.47;;
9424;SDS011;17139;52.140;11.636;2023-04-15T05:29:50;2.03;;;1.92;;
9424;SDS011;17139;52.140;11.636;2023-04-15T05:32:17;3.20;;;3.00;;
9424;SDS011;17139;52.140;11.636;2023-04-15T05:34:45;1.13;;;1.13;;
9424;SDS011;17139;52.140;11.636;2023-04-15T05:37:12;1.57;;;1.57;;
9424;SDS011;17139;52.140;11.636;2023-04-15T05:39:39;1.90;;;1.80;;
9424;SDS011;17139;52.140;11.636;2023-04-15T05:42:06;0.90;;;0.90;;
9424;SDS011;17139;52.140;11.636;2023-04-15T05:44:35;1.30;;;1.30;;
9424;SDS011;17139;52.140;11.636;2023-04-15T05:47:02;1.23;;;1.23;;
9424;SDS011;17139;52.140;11.636;2023-04-15T05:49:30;2.27;;;2.17;;
9424;SDS011;17139;52.140;11.636;2023-04-15T05:51:57;2.10;;;2.00;;
9424;SDS011;17139;52.140;11.636;2023-04-15T05:54:24;2.23;;;2.13;;
9424;SDS011;17139;52.140;11.636;2023-04-15T05:56:51;1.97;;;1.97;;
9424;SDS011;17139;52.140;11.636;2023-04-15T05:59:19;4.30;;;4.10;;
9424;SDS011;17139;52.140;11.636;2023-04-15T06:01:47;2.57;;;2.47;;
9424;SDS011;17139;52.140;11.636;2023-04-15T06:04:16;3.60;;;3.40;;
9424;SDS011;17139;52.140;11.636;2023-04-15T06:06:43;2.92;;;2.83;;
9424;SDS011;17139;52.140;11.636;2023-04-15T06:09:10;2.57;;;2.47;;
9424;SDS011;17139;52.140;11.636;2023-04-15T06:11:37;2.00;;;1.90;;
9424;SDS011;17139;52.140;11.636;2023-04-15T06:14:05;2.20;;;2.10;;
9424;SDS011;17139;52.140;11.636;2023-04-15T06:16:32;2.30;;;2.20;;
9424;SDS011;17139;52.140;11.636;2023-04-15T06:19:02;1.83;;;1.73;;
9424;SDS011;17139;52.140;11.636;2023-04-15T06:21:29;2.53;;;2.27;;
9424;SDS011;17139;52.140;11.636;2023-04-15T06:23:57;1.90;;;1.80;;
9424;SDS011;17139;52.140;11.636;2023-04-15T06:26:25;2.90;;;2.70;;
9424;SDS011;17139;52.140;11.636;2023-04-15T06:28:52;2.00;;;1.90;;
9424;SDS011;17139;52.140;11.636;2023-04-15T06:31:19;2.70;;;2.60;;
9424;SDS011;17139;52.140;11.636;2023-04-15T06:33:46;2.30;;;2.20;;
9424;SDS011;17139;52.140;11.636;2023-04-15T06:36:15;2.23;;;2.13;;
9424;SDS011;17139;52.140;11.636;2023-04-15T06:38:42;1.73;;;1.70;;
9424;SDS011;17139;52.140;11.636;2023-04-15T06:41:09;2.60;;;2.50;;
9424;SDS011;17139;52.140;11.636;2023-04-15T06:43:36;4.45;;;4.13;;
9424;SDS011;17139;52.140;11.636;2023-04-15T06:46:03;3.63;;;2.63;;
9424;SDS011;17139;52.140;11.636;2023-04-15T06:48:31;2.70;;;2.43;;
9424;SDS011;17139;52.140;11.636;2023-04-15T06:50:58;1.20;;;1.20;;
9424;SDS011;17139;52.140;11.636;2023-04-15T06:53:26;2.77;;;2.67;;
9424;SDS011;17139;52.140;11.636;2023-04-15T06:55:53;4.95;;;4.68;;
9424;SDS011;17139;52.140;11.636;2023-04-15T06:58:21;3.37;;;3.27;;
9424;SDS011;17139;52.140;11.636;2023-04-15T07:00:48;3.30;;;3.20;;
9424;SDS011;17139;52.140;11.636;2023-04-15T07:03:15;6.17;;;5.80;;
9424;SDS011;17139;52.140;11.636;2023-04-15T07:05:42;6.75;;;6.35;;
9424;SDS011;17139;52.140;11.636;2023-04-15T07:08:09;3.97;;;3.77;;
9424;SDS011;17139;52.140;11.636;2023-04-15T07:10:38;3.77;;;3.57;;
9424;SDS011;17139;52.140;11.636;2023-04-15T07:13:05;3.73;;;3.53;;
9424;SDS011;17139;52.140;11.636;2023-04-15T07:15:33;3.60;;;3.40;;
9424;SDS011;17139;52.140;11.636;2023-04-15T07:18:00;4.10;;;3.80;;
9424;SDS011;17139;52.140;11.636;2023-04-15T07:20:27;3.40;;;3.20;;
9424;SDS011;17139;52.140;11.636;2023-04-15T07:22:54;8.57;;;3.87;;
9424;SDS011;17139;52.140;11.636;2023-04-15T07:25:21;4.83;;;4.50;;
9424;SDS011;17139;52.140;11.636;2023-04-15T07:27:51;4.53;;;4.10;;
9424;SDS011;17139;52.140;11.636;2023-04-15T07:30:19;5.63;;;5.23;;
9424;SDS011;17139;52.140;11.636;2023-04-15T07:32:46;12.30;;;11.05;;
9424;SDS011;17139;52.140;11.636;2023-04-15T07:35:13;7.07;;;6.50;;
9424;SDS011;17139;52.140;11.636;2023-04-15T07:37:40;6.63;;;6.13;;
9424;SDS011;17139;52.140;11.636;2023-04-15T07:40:08;5.20;;;4.90;;
9424;SDS011;17139;52.140;11.636;2023-04-15T07:42:36;6.53;;;6.13;;
9424;SDS011;17139;52.140;11.636;2023-04-15T07:45:05;2.77;;;2.67;;
9424;SDS011;17139;52.140;11.636;2023-04-15T07:47:33;4.27;;;4.07;;
9424;SDS011;17139;52.140;11.636;2023-04-15T07:50:00;7.93;;;7.13;;
9424;SDS011;17139;52.140;11.636;2023-04-15T07:52:27;7.13;;;6.50;;
9424;SDS011;17139;52.140;11.636;2023-04-15T07:54:54;8.97;;;7.97;;
9424;SDS011;17139;52.140;11.636;2023-04-15T07:57:21;23.37;;;17.20;;
9424;SDS011;17139;52.140;11.636;2023-04-15T07:59:48;13.47;;;11.80;;
9424;SDS011;17139;52.140;11.636;2023-04-15T08:02:17;14.97;;;10.20;;
9424;SDS011;17139;52.140;11.636;2023-04-15T08:04:44;21.92;;;16.17;;
9424;SDS011;17139;52.140;11.636;2023-04-15T08:07:11;9.87;;;9.07;;
9424;SDS011;17139;52.140;11.636;2023-04-15T08:09:38;20.73;;;12.67;;
9424;SDS011;17139;52.140;11.636;2023-04-15T08:12:06;10.93;;;9.60;;
9424;SDS011;17139;52.140;11.636;2023-04-15T08:14:36;14.60;;;12.63;;
9424;SDS011;17139;52.140;11.636;2023-04-15T08:17:03;10.60;;;9.53;;
9424;SDS011;17139;52.140;11.636;2023-04-15T08:19:32;15.53;;;12.23;;
9424;SDS011;17139;52.140;11.636;2023-04-15T08:21:59;13.93;;;11.20;;
9424;SDS011;17139;52.140;11.636;2023-04-15T08:24:26;13.83;;;11.17;;
9424;SDS011;17139;52.140;11.636;2023-04-15T08:26:53;14.17;;;11.97;;
9424;SDS011;17139;52.140;11.636;2023-04-15T08:29:20;28.77;;;22.05;;
9424;SDS011;17139;52.140;11.636;2023-04-15T08:31:47;22.70;;;16.53;;
9424;SDS011;17139;52.140;11.636;2023-04-15T08:34:14;14.90;;;12.77;;
9424;SDS011;17139;52.140;11.636;2023-04-15T08:36:43;14.13;;;11.67;;
9424;SDS011;17139;52.140;11.636;2023-04-15T08:39:10;16.47;;;13.20;;
9424;SDS011;17139;52.140;11.636;2023-04-15T08:41:39;19.30;;;13.27;;
9424;SDS011;17139;52.140;11.636;2023-04-15T08:44:10;14.67;;;11.40;;
9424;SDS011;17139;52.140;11.636;2023-04-15T08:46:40;15.67;;;11.10;;
9424;SDS011;17139;52.140;11.636;2023-04-15T08:49:09;8.00;;;7.20;;
9424;SDS011;17139;52.140;11.636;2023-04-15T08:51:37;12.27;;;9.33;;
9424;SDS011;17139;52.140;11.636;2023-04-15T08:54:07;21.00;;;14.80;;
9424;SDS011;17139;52.140;11.636;2023-04-15T08:56:35;19.40;;;13.90;;
9424;SDS011;17139;52.140;11.636;2023-04-15T08:59:04;22.53;;;15.20;;
9424;SDS011;17139;52.140;11.636;2023-04-15T09:01:32;24.48;;;18.42;;
9424;SDS011;17139;52.140;11.636;2023-04-15T09:04:00;25.52;;;19.30;;
9424;SDS011;17139;52.140;11.636;2023-04-15T09:06:30;25.63;;;15.17;;
9424;SDS011;17139;52.140;11.636;2023-04-15T09:08:57;35.28;;;23.83;;
9424;SDS011;17139;52.140;11.636;2023-04-15T09:11:26;21.20;;;14.47;;
9424;SDS011;17139;52.140;11.636;2023-04-15T09:13:55;18.33;;;14.93;;
9424;SDS011;17139;52.140;11.636;2023-04-15T09:16:22;15.13;;;11.80;;
9424;SDS011;17139;52.140;11.636;2023-04-15T09:18:49;13.73;;;12.27;;
9424;SDS011;17139;52.140;11.636;2023-04-15T09:21:16;14.57;;;11.63;;
9424;SDS011;17139;52.140;11.636;2023-04-15T09:23:53;29.33;;;23.23;;
9424;SDS011;17139;52.140;11.636;2023-04-15T09:26:30;16.83;;;14.63;;
9424;SDS011;17139;52.140;11.636;2023-04-15T09:29:03;29.13;;;23.67;;
9424;SDS011;17139;52.140;11.636;2023-04-15T09:31:31;30.90;;;23.93;;
9424;SDS011;17139;52.140;11.636;2023-04-15T09:33:58;15.47;;;13.57;;
9424;SDS011;17139;52.140;11.636;2023-04-15T09:36:26;13.03;;;11.73;;
9424;SDS011;17139;52.140;11.636;2023-04-15T09:38:54;12.17;;;10.97;;
9424;SDS011;17139;52.140;11.636;2023-04-15T09:41:22;12.00;;;10.53;;
9424;SDS011;17139;52.140;11.636;2023-04-15T09:43:51;13.87;;;11.00;;
9424;SDS011;17139;52.140;11.636;2023-04-15T09:46:18;15.13;;;12.37;;
9424;SDS011;17139;52.140;11.636;2023-04-15T09:48:45;16.80;;;13.83;;
9424;SDS011;17139;52.140;11.636;2023-04-15T09:51:12;16.30;;;14.47;;
9424;SDS011;17139;52.140;11.636;2023-04-15T09:53:40;15.43;;;13.80;;
9424;SDS011;17139;52.140;11.636;2023-04-15T09:56:07;17.98;;;14.90;;
9424;SDS011;17139;52.140;11.636;2023-04-15T09:58:35;21.98;;;19.67;;
9424;SDS011;17139;52.140;11.636;2023-04-15T10:01:04;13.47;;;11.93;;
9424;SDS011;17139;52.140;11.636;2023-04-15T10:03:32;16.17;;;14.50;;
9424;SDS011;17139;52.140;11.636;2023-04-15T10:06:01;8.50;;;7.63;;
9424;SDS011;17139;52.140;11.636;2023-04-15T10:08:32;6.03;;;5.47;;
9424;SDS011;17139;52.140;11.636;2023-04-15T10:11:00;14.53;;;13.13;;
9424;SDS011;17139;52.140;11.636;2023-04-15T10:13:31;12.60;;;11.37;;
9424;SDS011;17139;52.140;11.636;2023-04-15T10:16:02;14.53;;;13.07;;
9424;SDS011;17139;52.140;11.636;2023-04-15T10:18:37;13.33;;;12.13;;
9424;SDS011;17139;52.140;11.636;2023-04-15T10:21:09;5.93;;;5.37;;
9424;SDS011;17139;52.140;11.636;2023-04-15T10:23:38;12.67;;;11.23;;
9424;SDS011;17139;52.140;11.636;2023-04-15T10:26:05;9.67;;;8.53;;
9424;SDS011;17139;52.140;11.636;2023-04-15T10:28:33;15.60;;;10.30;;
9424;SDS011;17139;52.140;11.636;2023-04-15T10:31:00;7.07;;;6.47;;
9424;SDS011;17139;52.140;11.636;2023-04-15T10:33:30;9.93;;;9.10;;
9424;SDS011;17139;52.140;11.636;2023-04-15T10:35:59;7.73;;;7.07;;
9424;SDS011;17139;52.140;11.636;2023-04-15T10:38:33;13.83;;;12.50;;
9424;SDS011;17139;52.140;11.636;2023-04-15T10:41:14;13.60;;;12.37;;
9424;SDS011;17139;52.140;11.636;2023-04-15T10:43:47;12.87;;;11.67;;
9424;SDS011;17139;52.140;11.636;2023-04-15T10:46:20;16.27;;;14.65;;
9424;SDS011;17139;52.140;11.636;2023-04-15T10:48:50;21.05;;;18.05;;
9424;SDS011;17139;52.140;11.636;2023-04-15T10:51:28;14.90;;;13.33;;
9424;SDS011;17139;52.140;11.636;2023-04-15T10:53:57;10.17;;;9.37;;
9424;SDS011;17139;52.140;11.636;2023-04-15T10:56:25;13.77;;;11.80;;
9424;SDS011;17139;52.140;11.636;2023-04-15T10:58:54;12.90;;;11.47;;
9424;SDS011;17139;52.140;11.636;2023-04-15T11:01:21;11.73;;;10.37;;
9424;SDS011;17139;52.140;11.636;2023-04-15T11:03:49;11.20;;;10.27;;
9424;SDS011;17139;52.140;11.636;2023-04-15T11:06:16;7.27;;;6.83;;
9424;SDS011;17139;52.140;11.636;2023-04-15T11:08:54;13.67;;;11.07;;
9424;SDS011;17139;52.140;11.636;2023-04-15T11:11:23;22.98;;;20.60;;
9424;SDS011;17139;52.140;11.636;2023-04-15T11:14:28;10.80;;;9.90;;
9424;SDS011;17139;52.140;11.636;2023-04-15T11:16:58;13.47;;;11.20;;
9424;SDS011;17139;52.140;11.636;2023-04-15T11:19:26;20.13;;;18.15;;
9424;SDS011;17139;52.140;11.636;2023-04-15T11:22:05;14.17;;;12.67;;
9424;SDS011;17139;52.140;11.636;2023-04-15T11:24:33;15.87;;;11.77;;
9424;SDS011;17139;52.140;11.636;2023-04-15T11:27:00;14.37;;;13.07;;
9424;SDS011;17139;52.140;11.636;2023-04-15T11:29:28;10.83;;;9.87;;
9424;SDS011;17139;52.140;11.636;2023-04-15T11:32:03;13.00;;;11.83;;
9424;SDS011;17139;52.140;11.636;2023-04-15T11:34:32;12.10;;;10.83;;
9424;SDS011;17139;52.140;11.636;2023-04-15T11:37:02;11.60;;;10.60;;
9424;SDS011;17139;52.140;11.636;2023-04-15T11:39:31;12.87;;;11.63;;
9424;SDS011;17139;52.140;11.636;2023-04-15T11:41:58;13.63;;;12.30;;
9424;SDS011;17139;52.140;11.636;2023-04-15T11:44:26;16.15;;;14.65;;
9424;SDS011;17139;52.140;11.636;2023-04-15T11:46:53;18.55;;;16.75;;
9424;SDS011;17139;52.140;11.636;2023-04-15T11:49:27;13.87;;;12.53;;
9424;SDS011;17139;52.140;11.636;2023-04-15T11:51:59;11.80;;;10.80;;
9424;SDS011;17139;52.140;11.636;2023-04-15T11:54:26;11.00;;;9.97;;
9424;SDS011;17139;52.140;11.636;2023-04-15T11:56:53;13.23;;;11.30;;
9424;SDS011;17139;52.140;11.636;2023-04-15T11:59:21;13.43;;;11.97;;
9424;SDS011;17139;52.140;11.636;2023-04-15T12:01:48;11.77;;;10.67;;
9424;SDS011;17139;52.140;11.636;2023-04-15T12:04:16;12.98;;;11.77;;
9424;SDS011;17139;52.140;11.636;2023-04-15T12:06:46;12.02;;;11.02;;
9424;SDS011;17139;52.140;11.636;2023-04-15T12:09:15;23.02;;;20.67;;
9424;SDS011;17139;52.140;11.636;2023-04-15T12:11:43;17.43;;;8.90;;
9424;SDS011;17139;52.140;11.636;2023-04-15T12:14:21;16.25;;;14.65;;
9424;SDS011;17139;52.140;11.636;2023-04-15T12:16:51;10.90;;;10.00;;
9424;SDS011;17139;52.140;11.636;2023-04-15T12:19:23;6.17;;;5.47;;
9424;SDS011;17139;52.140;11.636;2023-04-15T12:21:52;12.33;;;11.33;;
9424;SDS011;17139;52.140;11.636;2023-04-15T12:24:24;10.97;;;9.97;;
9424;SDS011;17139;52.140;11.636;2023-04-15T12:26:51;9.67;;;9.03;;
9424;SDS011;17139;52.140;11.636;2023-04-15T12:29:24;10.13;;;8.80;;
9424;SDS011;17139;52.140;11.636;2023-04-15T12:31:53;10.93;;;10.03;;
9424;SDS011;17139;52.140;11.636;2023-04-15T12:34:26;11.43;;;10.33;;
9424;SDS011;17139;52.140;11.636;2023-04-15T12:36:54;11.67;;;10.37;;
9424;SDS011;17139;52.140;11.636;2023-04-15T12:39:24;13.75;;;12.52;;
9424;SDS011;17139;52.140;11.636;2023-04-15T12:41:52;12.03;;;10.93;;
9424;SDS011;17139;52.140;11.636;2023-04-15T12:44:20;11.07;;;10.10;;
9424;SDS011;17139;52.140;11.636;2023-04-15T12:46:48;4.27;;;4.07;;
9424;SDS011;17139;52.140;11.636;2023-04-15T12:49:16;10.00;;;9.17;;
9424;SDS011;17139;52.140;11.636;2023-04-15T12:51:45;8.60;;;7.90;;
9424;SDS011;17139;52.140;11.636;2023-04-15T12:54:13;10.57;;;9.77;;
9424;SDS011;17139;52.140;11.636;2023-04-15T12:56:42;11.53;;;10.60;;
9424;SDS011;17139;52.140;11.636;2023-04-15T12:59:10;7.93;;;7.37;;
9424;SDS011;17139;52.140;11.636;2023-04-15T13:01:37;16.50;;;14.88;;
9424;SDS011;17139;52.140;11.636;2023-04-15T13:04:07;9.17;;;8.40;;
9424;SDS011;17139;52.140;11.636;2023-04-15T13:06:34;7.50;;;6.90;;
9424;SDS011;17139;52.140;11.636;2023-04-15T13:09:02;7.13;;;6.60;;
9424;SDS011;17139;52.140;11.636;2023-04-15T13:11:30;12.50;;;11.37;;
9424;SDS011;17139;52.140;11.636;2023-04-15T13:13:59;9.87;;;8.97;;
9424;SDS011;17139;52.140;11.636;2023-04-15T13:16:27;10.13;;;9.33;;
9424;SDS011;17139;52.140;11.636;2023-04-15T13:18:54;11.37;;;10.47;;
9424;SDS011;17139;52.140;11.636;2023-04-15T13:21:21;10.17;;;9.37;;
9424;SDS011;17139;52.140;11.636;2023-04-15T13:23:48;17.20;;;15.73;;
9424;SDS011;17139;52.140;11.636;2023-04-15T13:26:16;21.63;;;19.55;;
9424;SDS011;17139;52.140;11.636;2023-04-15T13:28:43;15.40;;;14.00;;
9424;SDS011;17139;52.140;11.636;2023-04-15T13:31:11;13.23;;;12.03;;
9424;SDS011;17139;52.140;11.636;2023-04-15T13:33:38;15.47;;;11.63;;
9424;SDS011;17139;52.140;11.636;2023-04-15T13:36:06;12.63;;;11.27;;
9424;SDS011;17139;52.140;11.636;2023-04-15T13:38:33;13.23;;;11.83;;
9424;SDS011;17139;52.140;11.636;2023-04-15T13:41:00;17.43;;;12.53;;
9424;SDS011;17139;52.140;11.636;2023-04-15T13:43:27;15.13;;;13.57;;
9424;SDS011;17139;52.140;11.636;2023-04-15T13:45:55;13.37;;;12.10;;
9424;SDS011;17139;52.140;11.636;2023-04-15T13:48:24;23.33;;;20.65;;
9424;SDS011;17139;52.140;11.636;2023-04-15T13:50:51;17.90;;;14.13;;
9424;SDS011;17139;52.140;11.636;2023-04-15T13:53:18;11.90;;;10.87;;
9424;SDS011;17139;52.140;11.636;2023-04-15T13:55:45;12.97;;;11.87;;
9424;SDS011;17139;52.140;11.636;2023-04-15T13:58:12;12.47;;;11.17;;
9424;SDS011;17139;52.140;11.636;2023-04-15T14:00:39;12.90;;;11.13;;
9424;SDS011;17139;52.140;11.636;2023-04-15T14:03:06;12.27;;;11.10;;
9424;SDS011;17139;52.140;11.636;2023-04-15T14:05:35;10.43;;;9.53;;
9424;SDS011;17139;52.140;11.636;2023-04-15T14:08:02;16.75;;;14.30;;
9424;SDS011;17139;52.140;11.636;2023-04-15T14:10:29;10.07;;;9.17;;
9424;SDS011;17139;52.140;11.636;2023-04-15T14:12:56;11.33;;;10.30;;
9424;SDS011;17139;52.140;11.636;2023-04-15T14:15:23;12.33;;;11.30;;
9424;SDS011;17139;52.140;11.636;2023-04-15T14:17:50;11.77;;;10.67;;
9424;SDS011;17139;52.140;11.636;2023-04-15T14:20:17;12.17;;;11.03;;
9424;SDS011;17139;52.140;11.636;2023-04-15T14:22:46;11.27;;;10.17;;
9424;SDS011;17139;52.140;11.636;2023-04-15T14:25:13;12.50;;;10.57;;
9424;SDS011;17139;52.140;11.636;2023-04-15T14:27:40;9.63;;;8.90;;
9424;SDS011;17139;52.140;11.636;2023-04-15T14:30:08;11.03;;;10.00;;
9424;SDS011;17139;52.140;11.636;2023-04-15T14:32:35;11.30;;;10.37;;
9424;SDS011;17139;52.140;11.636;2023-04-15T14:35:02;23.20;;;20.70;;
9424;SDS011;17139;52.140;11.636;2023-04-15T14:37:30;12.33;;;11.13;;
9424;SDS011;17139;52.140;11.636;2023-04-15T14:39:58;15.33;;;12.30;;
9424;SDS011;17139;52.140;11.636;2023-04-15T14:42:25;21.45;;;19.25;;
9424;SDS011;17139;52.140;11.636;2023-04-15T14:44:52;17.40;;;13.83;;